createdAt,value
2022-11-25T00:01:05.435Z,78.21
2022-11-25T00:06:15.963Z,78.22
2022-11-25T00:11:19.593Z,78.44
2022-11-25T00:16:23.345Z,79.23
2022-11-25T00:21:29.578Z,79.13
2022-11-25T00:26:33.787Z,79.14
2022-11-25T00:31:41.376Z,79.26
2022-11-25T00:36:46.031Z,79.92
2022-11-25T00:42:06.142Z,80.00
2022-11-25T00:47:12.367Z,80.19
2022-11-25T00:52:19.007Z,80.11
2022-11-25T00:57:24.651Z,79.96
2022-11-25T01:02:27.678Z,79.70
2022-11-25T01:07:32.243Z,79.77
2022-11-25T01:12:35.069Z,79.86
2022-11-25T01:17:37.852Z,80.44
2022-11-25T01:22:41.972Z,80.18
2022-11-25T01:27:44.709Z,80.23
2022-11-25T01:32:47.487Z,80.12
2022-11-25T01:37:51.663Z,80.19
2022-11-25T01:42:54.415Z,80.17
2022-11-25T01:48:01.325Z,80.44
2022-11-25T01:53:09.148Z,80.37
2022-11-25T01:58:16.151Z,80.18
2022-11-25T02:03:23.031Z,80.63
2022-11-25T02:08:27.741Z,80.63
2022-11-25T02:13:30.690Z,80.81
2022-11-25T02:18:33.663Z,80.69
2022-11-25T02:23:44.616Z,80.32
2022-11-25T02:28:49.793Z,80.32
2022-11-25T02:33:53.348Z,80.05
2022-11-25T02:38:58.053Z,79.69
2022-11-25T02:44:04.958Z,79.35
2022-11-25T02:49:10.208Z,79.21
2022-11-25T02:54:14.482Z,79.36
2022-11-25T02:59:18.751Z,79.31
2022-11-25T03:04:22.756Z,78.83
2022-11-25T03:09:25.577Z,79.82
2022-11-25T03:14:31.451Z,80.15
2022-11-25T03:19:34.297Z,80.53
2022-11-25T03:24:37.273Z,80.91
2022-11-25T03:29:41.944Z,80.92
2022-11-25T03:34:44.836Z,81.17
2022-11-25T03:39:47.765Z,81.24
2022-11-25T03:44:52.144Z,81.45
2022-11-25T03:49:55.383Z,81.74
2022-11-25T03:54:58.370Z,81.33
2022-11-25T04:00:09.366Z,81.58
2022-11-25T04:05:20.787Z,82.05
2022-11-25T04:10:25.110Z,81.90
2022-11-25T04:15:31.011Z,81.88
2022-11-25T04:20:35.038Z,81.71
2022-11-25T04:25:41.112Z,81.99
2022-11-25T04:30:50.607Z,81.77
2022-11-25T04:35:53.972Z,81.32
2022-11-25T04:40:57.248Z,81.26
2022-11-25T04:46:18.221Z,81.62
2022-11-25T04:51:26.371Z,80.92
2022-11-25T04:56:33.734Z,81.24
2022-11-25T05:01:38.411Z,80.87
2022-11-25T05:06:59.595Z,80.76
2022-11-25T05:12:03.037Z,80.88
2022-11-25T05:17:08.834Z,80.81
2022-11-25T05:22:12.336Z,80.57
2022-11-25T05:27:18.105Z,80.18
2022-11-25T05:32:22.811Z,80.28
2022-11-25T05:37:25.914Z,80.57
2022-11-25T05:42:38.122Z,80.22
2022-11-25T05:47:44.835Z,81.60
2022-11-25T05:52:51.564Z,82.49
2022-11-25T05:57:54.507Z,83.21
2022-11-25T06:02:59.231Z,83.89
2022-11-25T06:08:02.711Z,83.77
2022-11-25T06:13:05.845Z,83.86
2022-11-25T06:18:10.462Z,83.49
2022-11-25T06:23:14.081Z,83.89
2022-11-25T06:28:17.034Z,83.83
2022-11-25T06:33:25.468Z,84.02
2022-11-25T06:38:29.034Z,84.30
2022-11-25T06:43:32.715Z,84.32
2022-11-25T06:48:37.670Z,84.52
2022-11-25T06:53:41.114Z,84.94
2022-11-25T06:58:44.845Z,84.91
2022-11-25T07:03:50.807Z,84.97
2022-11-25T07:08:53.744Z,84.92
2022-11-25T07:13:58.569Z,85.23
2022-11-25T07:19:04.244Z,85.39
2022-11-25T07:24:08.657Z,85.05
2022-11-25T07:29:43.997Z,84.75
2022-11-25T07:34:37.380Z,84.64
2022-11-25T07:39:40.199Z,84.75
2022-11-25T07:44:42.972Z,84.60
2022-11-25T07:50:10.705Z,85.14
2022-11-25T07:55:13.509Z,85.91
2022-11-25T08:00:17.303Z,85.91
2022-11-25T08:05:21.396Z,86.31
2022-11-25T08:10:24.300Z,86.15
2022-11-25T08:15:27.105Z,86.57
2022-11-25T08:20:31.444Z,86.68
2022-11-25T08:25:34.256Z,86.73
2022-11-25T08:30:37.213Z,86.84
2022-11-25T08:35:41.379Z,87.34
2022-11-25T08:40:45.475Z,87.62
2022-11-25T08:45:48.597Z,87.98
2022-11-25T08:50:55.529Z,88.42
2022-11-25T08:55:58.277Z,88.72
2022-11-25T09:01:01.200Z,89.03
2022-11-25T09:06:06.071Z,89.32
2022-11-25T09:11:09.881Z,90.04
2022-11-25T09:16:12.829Z,90.50
2022-11-25T09:21:18.657Z,91.38
2022-11-25T09:26:24.632Z,90.87
2022-11-25T09:31:27.659Z,90.60
2022-11-25T09:36:31.874Z,90.32
2022-11-25T09:42:11.436Z,90.29
2022-11-25T09:47:23.707Z,90.51
2022-11-25T09:52:38.263Z,90.44
2022-11-25T09:57:59.111Z,90.65
2022-11-25T10:03:07.903Z,91.17
2022-11-25T10:08:16.848Z,90.96
2022-11-25T10:13:23.169Z,90.43
2022-11-25T10:18:30.868Z,89.67
2022-11-25T10:23:38.630Z,89.73
2022-11-25T10:28:46.402Z,89.42
2022-11-25T10:33:52.864Z,90.85
2022-11-25T10:39:00.945Z,90.66
2022-11-25T10:44:04.955Z,84.94
2022-11-25T10:49:15.695Z,84.21
2022-11-25T10:54:27.495Z,83.95
2022-11-25T10:59:33.244Z,83.59
2022-11-25T11:04:37.673Z,83.94
2022-11-25T11:09:42.095Z,84.35
2022-11-25T11:14:44.858Z,83.74
2022-11-25T11:20:02.151Z,82.70
2022-11-25T11:25:24.275Z,81.75
2022-11-25T11:30:29.459Z,82.26
2022-11-25T11:35:47.903Z,80.61
2022-11-25T11:40:56.264Z,81.44
2022-11-25T11:46:12.661Z,81.69
2022-11-25T11:51:23.807Z,82.21
2022-11-25T11:56:36.186Z,83.46
2022-11-25T12:01:50.070Z,83.35
2022-11-25T12:07:03.621Z,83.46
2022-11-25T12:12:14.271Z,81.88
2022-11-25T12:17:21.756Z,79.43
2022-11-25T12:22:29.942Z,80.02
2022-11-25T12:27:38.751Z,79.48
2022-11-25T12:32:58.070Z,77.40
2022-11-25T12:38:09.919Z,76.53
2022-11-25T12:43:26.830Z,75.04
2022-11-25T12:48:29.656Z,74.13
2022-11-25T12:53:42.635Z,75.37
2022-11-25T12:59:04.360Z,75.71
2022-11-25T13:04:38.453Z,78.35
2022-11-25T13:09:57.572Z,77.71
2022-11-25T13:15:21.520Z,77.54
2022-11-25T13:20:38.081Z,75.32
2022-11-25T13:25:43.380Z,73.81
2022-11-25T13:30:51.514Z,72.51
2022-11-25T13:35:55.151Z,72.89
2022-11-25T13:41:00.208Z,71.68
2022-11-25T13:46:04.489Z,71.62
2022-11-25T13:51:19.727Z,73.03
2022-11-25T13:56:29.413Z,75.87
2022-11-25T14:01:33.532Z,76.39
2022-11-25T14:07:02.760Z,77.03
2022-11-25T14:12:34.696Z,77.57
2022-11-25T14:18:09.932Z,78.12
2022-11-25T14:23:50.593Z,77.42
2022-11-25T14:28:58.906Z,77.61
2022-11-25T14:34:12.017Z,77.64
2022-11-25T14:39:22.750Z,77.90
2022-11-25T14:44:29.559Z,78.17
2022-11-25T14:49:55.730Z,78.58
2022-11-25T14:55:12.783Z,79.65
2022-11-25T15:00:17.789Z,79.12
2022-11-25T15:05:26.059Z,79.55
2022-11-25T15:10:42.054Z,80.31
2022-11-25T15:15:49.319Z,79.96
2022-11-25T15:20:58.359Z,79.81
2022-11-25T15:26:02.162Z,79.55
2022-11-25T15:31:10.488Z,80.00
2022-11-25T15:36:14.711Z,79.79
2022-11-25T15:41:21.637Z,80.23
2022-11-25T15:46:25.558Z,80.45
2022-11-25T15:51:41.573Z,81.44
2022-11-25T15:56:48.964Z,81.99
2022-11-25T16:01:51.816Z,82.11
2022-11-25T16:06:59.499Z,81.94
2022-11-25T16:12:07.403Z,81.20
2022-11-25T16:17:13.011Z,81.43
2022-11-25T16:22:19.900Z,81.34
2022-11-25T16:27:25.318Z,81.71
2022-11-25T16:32:31.508Z,80.91
2022-11-25T16:37:35.619Z,80.87
2022-11-25T16:42:39.052Z,81.02
2022-11-25T16:47:41.772Z,80.77
2022-11-25T16:52:45.724Z,80.34
2022-11-25T16:57:48.468Z,80.44
2022-11-25T17:02:51.264Z,80.26
2022-11-25T17:07:55.477Z,80.60
2022-11-25T17:12:58.380Z,79.54
2022-11-25T17:18:01.920Z,80.10
2022-11-25T17:23:13.124Z,79.95
2022-11-25T17:28:18.387Z,80.11
2022-11-25T17:33:21.322Z,80.92
2022-11-25T17:38:25.448Z,81.13
2022-11-25T17:43:34.363Z,81.55
2022-11-25T17:48:37.990Z,81.12
2022-11-25T17:53:42.755Z,81.42
2022-11-25T17:58:45.796Z,81.57
2022-11-25T18:03:49.440Z,81.84
2022-11-25T18:08:53.533Z,82.12
2022-11-25T18:13:56.522Z,82.91
2022-11-25T18:18:59.290Z,82.71
2022-11-25T18:24:03.483Z,82.85
2022-11-25T18:29:07.975Z,83.70
2022-11-25T18:34:15.374Z,83.52
2022-11-25T18:39:19.777Z,83.31
2022-11-25T18:44:37.498Z,83.30
2022-11-25T18:49:40.374Z,82.44
2022-11-25T18:54:44.478Z,81.61
2022-11-25T18:59:55.992Z,82.59
2022-11-25T19:05:03.828Z,83.40
2022-11-25T19:10:13.577Z,82.24
2022-11-25T19:15:21.286Z,81.32
2022-11-25T19:20:25.001Z,80.79
2022-11-25T19:25:29.568Z,80.88
2022-11-25T19:30:33.384Z,81.07
2022-11-25T19:35:38.558Z,82.33
2022-11-25T19:40:42.755Z,81.62
2022-11-25T19:45:46.439Z,82.17
2022-11-25T19:50:51.925Z,82.58
2022-11-25T19:55:56.030Z,84.29
2022-11-25T20:01:03.090Z,83.43
2022-11-25T20:06:06.448Z,84.03
2022-11-25T20:11:13.000Z,83.59
2022-11-25T20:16:19.124Z,83.95
2022-11-25T20:21:27.706Z,85.03
2022-11-25T20:26:35.248Z,84.90
2022-11-25T20:31:38.013Z,84.15
2022-11-25T20:36:42.294Z,82.78
2022-11-25T20:41:49.103Z,84.12
2022-11-25T20:46:51.879Z,83.50
2022-11-25T20:51:54.661Z,83.78
2022-11-25T20:57:00.592Z,85.73
2022-11-25T21:02:03.388Z,85.41
2022-11-25T21:07:11.552Z,84.72
2022-11-25T21:12:19.590Z,85.45
2022-11-25T21:17:22.497Z,84.95
2022-11-25T21:22:25.097Z,84.77
2022-11-25T21:27:29.325Z,84.82
2022-11-25T21:32:32.171Z,83.81
2022-11-25T21:37:36.662Z,83.61
2022-11-25T21:42:40.819Z,83.56
2022-11-25T21:47:43.623Z,84.18
2022-11-25T21:52:46.601Z,84.13
2022-11-25T21:57:51.318Z,84.30
2022-11-25T22:02:54.153Z,84.60
2022-11-25T22:07:57.146Z,84.45
2022-11-25T22:13:01.511Z,84.43
2022-11-25T22:18:04.275Z,84.67
2022-11-25T22:23:14.851Z,86.23
2022-11-25T22:28:21.506Z,86.59
2022-11-25T22:33:29.891Z,86.41
2022-11-25T22:38:32.666Z,85.85
2022-11-25T22:43:43.814Z,86.65
2022-11-25T22:48:47.126Z,87.29
2022-11-25T22:53:49.977Z,86.45
2022-11-25T22:58:59.980Z,87.25
2022-11-25T23:04:03.013Z,86.71
2022-11-25T23:09:11.189Z,88.38
2022-11-25T23:14:15.573Z,88.12
2022-11-25T23:19:18.341Z,87.71
2022-11-25T23:24:21.118Z,88.36
2022-11-25T23:29:25.548Z,87.58
2022-11-25T23:34:28.356Z,88.40
2022-11-25T23:39:32.347Z,88.06
2022-11-25T23:44:36.805Z,87.68
2022-11-25T23:49:44.098Z,87.80
2022-11-25T23:54:48.812Z,87.71
2022-11-25T23:59:53.614Z,90.09
